sensor_id;sensor_type;location;lat;lon;timestamp;temperature;humidity
79055;DHT22;68452;47.186;-1.528;2023-06-22T00:00:58;24.70;53.20
79055;DHT22;68452;47.186;-1.528;2023-06-22T00:03:24;24.70;53.30
79055;DHT22;68452;47.186;-1.528;2023-06-22T00:05:51;24.70;53.40
79055;DHT22;68452;47.186;-1.528;2023-06-22T00:08:17;24.70;53.40
79055;DHT22;68452;47.186;-1.528;2023-06-22T00:10:44;24.70;53.40
79055;DHT22;68452;47.186;-1.528;2023-06-22T00:13:10;24.70;53.50
79055;DHT22;68452;47.186;-1.528;2023-06-22T00:15:37;24.60;53.60
79055;DHT22;68452;47.186;-1.528;2023-06-22T00:18:07;24.60;53.70
79055;DHT22;68452;47.186;-1.528;2023-06-22T00:20:33;24.60;53.70
79055;DHT22;68452;47.186;-1.528;2023-06-22T00:23:00;24.60;53.80
79055;DHT22;68452;47.186;-1.528;2023-06-22T00:25:25;24.50;53.90
79055;DHT22;68452;47.186;-1.528;2023-06-22T00:27:51;24.50;53.90
79055;DHT22;68452;47.186;-1.528;2023-06-22T00:30:18;24.50;54.00
79055;DHT22;68452;47.186;-1.528;2023-06-22T00:32:45;24.50;54.00
79055;DHT22;68452;47.186;-1.528;2023-06-22T00:35:14;24.50;54.00
79055;DHT22;68452;47.186;-1.528;2023-06-22T00:37:40;24.50;54.00
79055;DHT22;68452;47.186;-1.528;2023-06-22T00:40:09;24.40;54.10
79055;DHT22;68452;47.186;-1.528;2023-06-22T00:42:40;24.40;54.20
79055;DHT22;68452;47.186;-1.528;2023-06-22T00:45:06;24.40;54.10
79055;DHT22;68452;47.186;-1.528;2023-06-22T00:47:36;24.40;54.20
79055;DHT22;68452;47.186;-1.528;2023-06-22T00:50:06;24.40;54.20
79055;DHT22;68452;47.186;-1.528;2023-06-22T00:52:32;24.40;54.20
79055;DHT22;68452;47.186;-1.528;2023-06-22T00:55:02;24.40;54.20
79055;DHT22;68452;47.186;-1.528;2023-06-22T00:57:28;24.40;54.20
79055;DHT22;68452;47.186;-1.528;2023-06-22T00:59:54;24.40;54.10
79055;DHT22;68452;47.186;-1.528;2023-06-22T01:02:21;24.30;54.20
79055;DHT22;68452;47.186;-1.528;2023-06-22T01:04:46;24.30;54.20
79055;DHT22;68452;47.186;-1.528;2023-06-22T01:07:30;24.30;54.20
79055;DHT22;68452;47.186;-1.528;2023-06-22T01:10:21;24.30;54.20
79055;DHT22;68452;47.186;-1.528;2023-06-22T01:12:53;24.30;54.20
79055;DHT22;68452;47.186;-1.528;2023-06-22T01:15:29;24.30;54.30
79055;DHT22;68452;47.186;-1.528;2023-06-22T01:17:57;24.20;54.40
79055;DHT22;68452;47.186;-1.528;2023-06-22T01:20:25;24.20;54.50
79055;DHT22;68452;47.186;-1.528;2023-06-22T01:23:14;24.20;54.50
79055;DHT22;68452;47.186;-1.528;2023-06-22T01:28:39;24.20;54.40
79055;DHT22;68452;47.186;-1.528;2023-06-22T01:31:08;24.20;54.40
79055;DHT22;68452;47.186;-1.528;2023-06-22T01:33:39;24.20;54.40
79055;DHT22;68452;47.186;-1.528;2023-06-22T01:36:06;24.20;54.40
79055;DHT22;68452;47.186;-1.528;2023-06-22T01:38:33;24.20;54.50
79055;DHT22;68452;47.186;-1.528;2023-06-22T01:40:59;24.20;54.50
79055;DHT22;68452;47.186;-1.528;2023-06-22T01:43:27;24.20;54.60
79055;DHT22;68452;47.186;-1.528;2023-06-22T01:45:58;24.20;54.60
79055;DHT22;68452;47.186;-1.528;2023-06-22T01:48:24;24.10;54.70
79055;DHT22;68452;47.186;-1.528;2023-06-22T01:50:52;24.20;54.60
79055;DHT22;68452;47.186;-1.528;2023-06-22T01:53:24;24.20;54.60
79055;DHT22;68452;47.186;-1.528;2023-06-22T01:55:50;24.20;54.60
79055;DHT22;68452;47.186;-1.528;2023-06-22T01:58:16;24.10;54.60
79055;DHT22;68452;47.186;-1.528;2023-06-22T02:00:50;24.10;54.50
79055;DHT22;68452;47.186;-1.528;2023-06-22T02:03:24;24.00;54.50
79055;DHT22;68452;47.186;-1.528;2023-06-22T02:06:20;24.00;54.60
79055;DHT22;68452;47.186;-1.528;2023-06-22T02:08:55;24.00;54.40
79055;DHT22;68452;47.186;-1.528;2023-06-22T02:11:23;24.00;54.30
79055;DHT22;68452;47.186;-1.528;2023-06-22T02:13:51;24.00;54.30
79055;DHT22;68452;47.186;-1.528;2023-06-22T02:16:18;23.90;54.30
79055;DHT22;68452;47.186;-1.528;2023-06-22T02:18:48;24.00;54.20
79055;DHT22;68452;47.186;-1.528;2023-06-22T02:21:18;23.90;54.20
79055;DHT22;68452;47.186;-1.528;2023-06-22T02:23:43;23.90;54.10
79055;DHT22;68452;47.186;-1.528;2023-06-22T02:26:10;23.90;54.10
79055;DHT22;68452;47.186;-1.528;2023-06-22T02:28:35;23.80;54.10
79055;DHT22;68452;47.186;-1.528;2023-06-22T02:31:01;23.90;54.20
79055;DHT22;68452;47.186;-1.528;2023-06-22T02:33:27;23.80;54.10
79055;DHT22;68452;47.186;-1.528;2023-06-22T02:35:53;23.80;54.00
79055;DHT22;68452;47.186;-1.528;2023-06-22T02:38:19;23.80;54.00
79055;DHT22;68452;47.186;-1.528;2023-06-22T02:40:46;23.80;54.00
79055;DHT22;68452;47.186;-1.528;2023-06-22T02:43:12;23.80;54.00
79055;DHT22;68452;47.186;-1.528;2023-06-22T02:45:38;23.70;54.10
79055;DHT22;68452;47.186;-1.528;2023-06-22T02:48:04;23.70;54.00
79055;DHT22;68452;47.186;-1.528;2023-06-22T02:50:30;23.70;54.20
79055;DHT22;68452;47.186;-1.528;2023-06-22T02:52:56;23.70;54.30
79055;DHT22;68452;47.186;-1.528;2023-06-22T02:55:22;23.70;54.20
79055;DHT22;68452;47.186;-1.528;2023-06-22T02:57:49;23.70;54.20
79055;DHT22;68452;47.186;-1.528;2023-06-22T03:00:18;23.60;54.20
79055;DHT22;68452;47.186;-1.528;2023-06-22T03:02:45;23.60;54.40
79055;DHT22;68452;47.186;-1.528;2023-06-22T03:05:12;23.60;54.40
79055;DHT22;68452;47.186;-1.528;2023-06-22T03:07:40;23.60;54.40
79055;DHT22;68452;47.186;-1.528;2023-06-22T03:10:11;23.60;54.50
79055;DHT22;68452;47.186;-1.528;2023-06-22T03:12:38;23.60;54.50
79055;DHT22;68452;47.186;-1.528;2023-06-22T03:15:11;23.60;54.70
79055;DHT22;68452;47.186;-1.528;2023-06-22T03:17:38;23.60;54.70
79055;DHT22;68452;47.186;-1.528;2023-06-22T03:20:06;23.50;54.80
79055;DHT22;68452;47.186;-1.528;2023-06-22T03:22:38;23.50;54.80
79055;DHT22;68452;47.186;-1.528;2023-06-22T03:25:05;23.50;54.80
79055;DHT22;68452;47.186;-1.528;2023-06-22T03:27:37;23.50;54.90
79055;DHT22;68452;47.186;-1.528;2023-06-22T03:30:03;23.50;55.00
79055;DHT22;68452;47.186;-1.528;2023-06-22T03:32:29;23.50;55.10
79055;DHT22;68452;47.186;-1.528;2023-06-22T03:34:55;23.40;55.20
79055;DHT22;68452;47.186;-1.528;2023-06-22T03:37:25;23.40;55.20
79055;DHT22;68452;47.186;-1.528;2023-06-22T03:39:51;23.50;55.30
79055;DHT22;68452;47.186;-1.528;2023-06-22T03:42:17;23.40;55.30
79055;DHT22;68452;47.186;-1.528;2023-06-22T03:44:43;23.40;55.40
79055;DHT22;68452;47.186;-1.528;2023-06-22T03:47:09;23.40;55.40
79055;DHT22;68452;47.186;-1.528;2023-06-22T03:49:35;23.40;55.40
79055;DHT22;68452;47.186;-1.528;2023-06-22T03:52:02;23.40;55.60
79055;DHT22;68452;47.186;-1.528;2023-06-22T03:54:31;23.40;55.60
79055;DHT22;68452;47.186;-1.528;2023-06-22T03:56:58;23.30;55.70
79055;DHT22;68452;47.186;-1.528;2023-06-22T03:59:24;23.30;55.80
79055;DHT22;68452;47.186;-1.528;2023-06-22T04:01:50;23.30;55.80
79055;DHT22;68452;47.186;-1.528;2023-06-22T04:04:19;23.30;55.90
79055;DHT22;68452;47.186;-1.528;2023-06-22T04:06:45;23.30;56.00
79055;DHT22;68452;47.186;-1.528;2023-06-22T04:09:11;23.30;56.00
79055;DHT22;68452;47.186;-1.528;2023-06-22T04:11:37;23.30;56.10
79055;DHT22;68452;47.186;-1.528;2023-06-22T04:14:03;23.30;56.10
79055;DHT22;68452;47.186;-1.528;2023-06-22T04:16:29;23.20;56.20
79055;DHT22;68452;47.186;-1.528;2023-06-22T04:18:55;23.20;56.30
79055;DHT22;68452;47.186;-1.528;2023-06-22T04:21:20;23.20;56.40
79055;DHT22;68452;47.186;-1.528;2023-06-22T04:23:46;23.20;56.60
79055;DHT22;68452;47.186;-1.528;2023-06-22T04:26:13;23.20;56.60
79055;DHT22;68452;47.186;-1.528;2023-06-22T04:28:42;23.20;56.60
79055;DHT22;68452;47.186;-1.528;2023-06-22T04:31:08;23.20;56.60
79055;DHT22;68452;47.186;-1.528;2023-06-22T04:33:34;23.10;56.70
79055;DHT22;68452;47.186;-1.528;2023-06-22T04:35:59;23.10;56.80
79055;DHT22;68452;47.186;-1.528;2023-06-22T04:38:29;23.10;57.00
79055;DHT22;68452;47.186;-1.528;2023-06-22T04:40:59;23.10;57.10
79055;DHT22;68452;47.186;-1.528;2023-06-22T04:43:27;23.10;57.00
79055;DHT22;68452;47.186;-1.528;2023-06-22T04:45:57;23.10;57.10
79055;DHT22;68452;47.186;-1.528;2023-06-22T04:48:29;23.10;57.10
79055;DHT22;68452;47.186;-1.528;2023-06-22T04:50:58;23.10;57.10
79055;DHT22;68452;47.186;-1.528;2023-06-22T04:53:28;23.10;57.10
79055;DHT22;68452;47.186;-1.528;2023-06-22T04:55:55;23.10;57.20
79055;DHT22;68452;47.186;-1.528;2023-06-22T04:58:21;23.10;57.30
79055;DHT22;68452;47.186;-1.528;2023-06-22T05:00:47;23.10;57.30
79055;DHT22;68452;47.186;-1.528;2023-06-22T05:03:13;23.00;57.40
79055;DHT22;68452;47.186;-1.528;2023-06-22T05:05:39;23.00;57.40
79055;DHT22;68452;47.186;-1.528;2023-06-22T05:08:04;23.00;57.60
79055;DHT22;68452;47.186;-1.528;2023-06-22T05:10:33;23.00;57.50
79055;DHT22;68452;47.186;-1.528;2023-06-22T05:12:59;23.00;57.60
79055;DHT22;68452;47.186;-1.528;2023-06-22T05:15:25;23.00;57.60
79055;DHT22;68452;47.186;-1.528;2023-06-22T05:17:53;23.00;57.50
79055;DHT22;68452;47.186;-1.528;2023-06-22T05:20:19;23.00;57.70
79055;DHT22;68452;47.186;-1.528;2023-06-22T05:22:47;23.00;57.60
79055;DHT22;68452;47.186;-1.528;2023-06-22T05:25:13;23.00;57.60
79055;DHT22;68452;47.186;-1.528;2023-06-22T05:27:39;23.00;57.80
79055;DHT22;68452;47.186;-1.528;2023-06-22T05:30:09;23.10;57.80
79055;DHT22;68452;47.186;-1.528;2023-06-22T05:32:36;23.10;57.70
79055;DHT22;68452;47.186;-1.528;2023-06-22T05:35:03;23.10;57.70
79055;DHT22;68452;47.186;-1.528;2023-06-22T05:37:29;23.10;57.80
79055;DHT22;68452;47.186;-1.528;2023-06-22T05:39:55;23.10;57.80
79055;DHT22;68452;47.186;-1.528;2023-06-22T05:42:22;23.10;57.80
79055;DHT22;68452;47.186;-1.528;2023-06-22T05:44:52;23.10;57.80
79055;DHT22;68452;47.186;-1.528;2023-06-22T05:47:18;23.10;57.80
79055;DHT22;68452;47.186;-1.528;2023-06-22T05:49:44;23.10;57.80
79055;DHT22;68452;47.186;-1.528;2023-06-22T05:52:11;23.00;57.90
79055;DHT22;68452;47.186;-1.528;2023-06-22T05:54:37;23.00;58.00
79055;DHT22;68452;47.186;-1.528;2023-06-22T05:57:04;23.10;57.90
79055;DHT22;68452;47.186;-1.528;2023-06-22T05:59:30;23.10;57.80
79055;DHT22;68452;47.186;-1.528;2023-06-22T06:01:56;23.10;57.90
79055;DHT22;68452;47.186;-1.528;2023-06-22T06:04:22;23.10;57.90
79055;DHT22;68452;47.186;-1.528;2023-06-22T06:06:47;23.20;57.80
79055;DHT22;68452;47.186;-1.528;2023-06-22T06:09:14;23.20;57.80
79055;DHT22;68452;47.186;-1.528;2023-06-22T06:11:40;23.20;57.70
79055;DHT22;68452;47.186;-1.528;2023-06-22T06:14:06;23.30;57.60
79055;DHT22;68452;47.186;-1.528;2023-06-22T06:16:32;23.30;57.50
79055;DHT22;68452;47.186;-1.528;2023-06-22T06:18:58;23.30;57.50
79055;DHT22;68452;47.186;-1.528;2023-06-22T06:21:24;23.40;57.40
79055;DHT22;68452;47.186;-1.528;2023-06-22T06:23:50;23.30;57.30
79055;DHT22;68452;47.186;-1.528;2023-06-22T06:26:16;23.40;57.30
79055;DHT22;68452;47.186;-1.528;2023-06-22T06:28:45;23.40;57.30
79055;DHT22;68452;47.186;-1.528;2023-06-22T06:31:11;23.40;57.30
79055;DHT22;68452;47.186;-1.528;2023-06-22T06:33:38;23.40;57.30
79055;DHT22;68452;47.186;-1.528;2023-06-22T06:36:04;23.40;57.30
79055;DHT22;68452;47.186;-1.528;2023-06-22T06:38:31;23.40;57.40
79055;DHT22;68452;47.186;-1.528;2023-06-22T06:40:57;23.40;57.30
79055;DHT22;68452;47.186;-1.528;2023-06-22T06:43:23;23.40;57.40
79055;DHT22;68452;47.186;-1.528;2023-06-22T06:45:50;23.40;57.30
79055;DHT22;68452;47.186;-1.528;2023-06-22T06:48:16;23.40;57.40
79055;DHT22;68452;47.186;-1.528;2023-06-22T06:50:43;23.50;57.30
79055;DHT22;68452;47.186;-1.528;2023-06-22T06:53:09;23.50;57.30
79055;DHT22;68452;47.186;-1.528;2023-06-22T06:55:35;23.60;57.20
79055;DHT22;68452;47.186;-1.528;2023-06-22T06:58:03;23.50;57.30
79055;DHT22;68452;47.186;-1.528;2023-06-22T07:00:33;23.60;57.30
79055;DHT22;68452;47.186;-1.528;2023-06-22T07:02:58;23.70;57.10
79055;DHT22;68452;47.186;-1.528;2023-06-22T07:05:24;23.70;57.00
79055;DHT22;68452;47.186;-1.528;2023-06-22T07:07:50;23.70;57.00
79055;DHT22;68452;47.186;-1.528;2023-06-22T07:10:16;23.80;56.90
79055;DHT22;68452;47.186;-1.528;2023-06-22T07:12:42;23.80;56.80
79055;DHT22;68452;47.186;-1.528;2023-06-22T07:15:09;23.90;56.80
79055;DHT22;68452;47.186;-1.528;2023-06-22T07:17:36;23.90;56.80
79055;DHT22;68452;47.186;-1.528;2023-06-22T07:20:03;24.00;56.60
79055;DHT22;68452;47.186;-1.528;2023-06-22T07:22:34;24.00;56.40
79055;DHT22;68452;47.186;-1.528;2023-06-22T07:25:00;24.00;56.50
79055;DHT22;68452;47.186;-1.528;2023-06-22T07:27:26;24.00;56.50
79055;DHT22;68452;47.186;-1.528;2023-06-22T07:29:52;24.00;56.50
79055;DHT22;68452;47.186;-1.528;2023-06-22T07:32:18;24.10;56.20
79055;DHT22;68452;47.186;-1.528;2023-06-22T07:34:44;24.10;56.10
79055;DHT22;68452;47.186;-1.528;2023-06-22T07:37:10;24.10;56.10
79055;DHT22;68452;47.186;-1.528;2023-06-22T07:39:35;24.10;56.10
79055;DHT22;68452;47.186;-1.528;2023-06-22T07:42:03;24.10;55.90
79055;DHT22;68452;47.186;-1.528;2023-06-22T07:44:29;24.20;56.00
79055;DHT22;68452;47.186;-1.528;2023-06-22T07:46:55;24.30;55.80
79055;DHT22;68452;47.186;-1.528;2023-06-22T07:49:21;24.40;55.60
79055;DHT22;68452;47.186;-1.528;2023-06-22T07:51:46;24.50;55.50
79055;DHT22;68452;47.186;-1.528;2023-06-22T07:54:12;24.50;55.30
79055;DHT22;68452;47.186;-1.528;2023-06-22T07:56:41;24.50;55.20
79055;DHT22;68452;47.186;-1.528;2023-06-22T07:59:07;24.50;55.30
79055;DHT22;68452;47.186;-1.528;2023-06-22T08:01:32;24.50;55.20
79055;DHT22;68452;47.186;-1.528;2023-06-22T08:03:58;24.50;55.30
79055;DHT22;68452;47.186;-1.528;2023-06-22T08:06:24;24.50;55.10
79055;DHT22;68452;47.186;-1.528;2023-06-22T08:08:50;24.50;55.30
79055;DHT22;68452;47.186;-1.528;2023-06-22T08:11:20;24.50;55.30
79055;DHT22;68452;47.186;-1.528;2023-06-22T08:13:47;24.60;55.20
79055;DHT22;68452;47.186;-1.528;2023-06-22T08:16:13;24.60;55.00
79055;DHT22;68452;47.186;-1.528;2023-06-22T08:18:39;24.70;54.90
79055;DHT22;68452;47.186;-1.528;2023-06-22T08:21:05;24.70;54.90
79055;DHT22;68452;47.186;-1.528;2023-06-22T08:23:31;24.70;54.90
79055;DHT22;68452;47.186;-1.528;2023-06-22T08:25:56;24.70;54.80
79055;DHT22;68452;47.186;-1.528;2023-06-22T08:28:22;24.80;54.60
79055;DHT22;68452;47.186;-1.528;2023-06-22T08:30:48;24.80;54.30
79055;DHT22;68452;47.186;-1.528;2023-06-22T08:33:14;24.80;54.40
79055;DHT22;68452;47.186;-1.528;2023-06-22T08:35:40;24.80;54.50
79055;DHT22;68452;47.186;-1.528;2023-06-22T08:38:05;24.90;54.50
79055;DHT22;68452;47.186;-1.528;2023-06-22T08:40:31;24.90;54.30
79055;DHT22;68452;47.186;-1.528;2023-06-22T08:42:58;24.90;54.10
79055;DHT22;68452;47.186;-1.528;2023-06-22T08:45:24;24.90;54.20
79055;DHT22;68452;47.186;-1.528;2023-06-22T08:47:49;24.80;54.20
79055;DHT22;68452;47.186;-1.528;2023-06-22T08:50:15;24.90;54.30
79055;DHT22;68452;47.186;-1.528;2023-06-22T08:52:41;25.00;54.30
79055;DHT22;68452;47.186;-1.528;2023-06-22T08:55:08;24.90;54.10
79055;DHT22;68452;47.186;-1.528;2023-06-22T08:57:34;24.90;54.10
79055;DHT22;68452;47.186;-1.528;2023-06-22T09:00:03;25.00;54.10
79055;DHT22;68452;47.186;-1.528;2023-06-22T09:02:30;25.10;53.90
79055;DHT22;68452;47.186;-1.528;2023-06-22T09:04:59;25.30;53.80
79055;DHT22;68452;47.186;-1.528;2023-06-22T09:07:25;25.40;53.60
79055;DHT22;68452;47.186;-1.528;2023-06-22T09:09:51;25.50;53.40
79055;DHT22;68452;47.186;-1.528;2023-06-22T09:12:20;25.50;52.90
79055;DHT22;68452;47.186;-1.528;2023-06-22T09:14:50;25.60;52.80
79055;DHT22;68452;47.186;-1.528;2023-06-22T09:17:15;25.60;52.50
79055;DHT22;68452;47.186;-1.528;2023-06-22T09:19:41;25.70;52.70
79055;DHT22;68452;47.186;-1.528;2023-06-22T09:22:07;25.70;52.70
79055;DHT22;68452;47.186;-1.528;2023-06-22T09:24:33;25.70;52.40
79055;DHT22;68452;47.186;-1.528;2023-06-22T09:26:59;25.70;52.50
79055;DHT22;68452;47.186;-1.528;2023-06-22T09:29:25;25.70;52.70
79055;DHT22;68452;47.186;-1.528;2023-06-22T09:31:51;25.80;52.40
79055;DHT22;68452;47.186;-1.528;2023-06-22T09:34:19;25.80;52.50
79055;DHT22;68452;47.186;-1.528;2023-06-22T09:36:46;25.90;52.50
79055;DHT22;68452;47.186;-1.528;2023-06-22T09:39:12;26.00;52.50
79055;DHT22;68452;47.186;-1.528;2023-06-22T09:41:38;26.00;52.20
79055;DHT22;68452;47.186;-1.528;2023-06-22T09:44:04;26.00;52.10
79055;DHT22;68452;47.186;-1.528;2023-06-22T09:46:29;26.10;52.20
79055;DHT22;68452;47.186;-1.528;2023-06-22T09:48:55;26.10;52.00
79055;DHT22;68452;47.186;-1.528;2023-06-22T09:51:21;26.10;51.70
79055;DHT22;68452;47.186;-1.528;2023-06-22T09:53:52;26.10;51.80
79055;DHT22;68452;47.186;-1.528;2023-06-22T09:56:19;26.10;52.00
79055;DHT22;68452;47.186;-1.528;2023-06-22T09:58:46;26.20;51.80
79055;DHT22;68452;47.186;-1.528;2023-06-22T10:01:12;26.20;51.60
79055;DHT22;68452;47.186;-1.528;2023-06-22T10:03:40;26.30;51.60
79055;DHT22;68452;47.186;-1.528;2023-06-22T10:06:07;26.30;51.60
79055;DHT22;68452;47.186;-1.528;2023-06-22T10:08:33;26.40;51.30
79055;DHT22;68452;47.186;-1.528;2023-06-22T10:10:59;26.50;51.40
79055;DHT22;68452;47.186;-1.528;2023-06-22T10:13:25;26.50;51.20
79055;DHT22;68452;47.186;-1.528;2023-06-22T10:15:50;26.60;51.10
79055;DHT22;68452;47.186;-1.528;2023-06-22T10:18:21;26.60;51.00
79055;DHT22;68452;47.186;-1.528;2023-06-22T10:20:51;26.70;50.90
79055;DHT22;68452;47.186;-1.528;2023-06-22T10:23:18;26.80;50.90
79055;DHT22;68452;47.186;-1.528;2023-06-22T10:25:43;26.90;50.60
79055;DHT22;68452;47.186;-1.528;2023-06-22T10:28:09;27.10;50.40
79055;DHT22;68452;47.186;-1.528;2023-06-22T10:30:35;27.10;50.30
79055;DHT22;68452;47.186;-1.528;2023-06-22T10:33:01;27.10;50.10
79055;DHT22;68452;47.186;-1.528;2023-06-22T10:35:27;27.10;50.30
79055;DHT22;68452;47.186;-1.528;2023-06-22T10:37:52;27.30;50.40
79055;DHT22;68452;47.186;-1.528;2023-06-22T10:40:20;27.60;49.80
79055;DHT22;68452;47.186;-1.528;2023-06-22T10:42:46;27.90;49.50
79055;DHT22;68452;47.186;-1.528;2023-06-22T10:45:12;27.90;48.70
79055;DHT22;68452;47.186;-1.528;2023-06-22T10:47:39;28.00;48.80
79055;DHT22;68452;47.186;-1.528;2023-06-22T10:50:05;28.20;48.60
79055;DHT22;68452;47.186;-1.528;2023-06-22T10:52:31;28.20;48.30
79055;DHT22;68452;47.186;-1.528;2023-06-22T10:54:57;28.30;48.40
79055;DHT22;68452;47.186;-1.528;2023-06-22T10:57:23;28.40;48.20
79055;DHT22;68452;47.186;-1.528;2023-06-22T10:59:49;28.20;48.40
79055;DHT22;68452;47.186;-1.528;2023-06-22T11:02:15;28.80;48.00
79055;DHT22;68452;47.186;-1.528;2023-06-22T11:04:41;29.60;46.50
79055;DHT22;68452;47.186;-1.528;2023-06-22T11:07:06;29.80;46.00
79055;DHT22;68452;47.186;-1.528;2023-06-22T11:09:32;30.10;45.30
79055;DHT22;68452;47.186;-1.528;2023-06-22T11:11:58;30.10;45.00
79055;DHT22;68452;47.186;-1.528;2023-06-22T11:14:25;30.00;45.30
79055;DHT22;68452;47.186;-1.528;2023-06-22T11:16:51;29.90;44.70
79055;DHT22;68452;47.186;-1.528;2023-06-22T11:19:17;29.70;45.20
79055;DHT22;68452;47.186;-1.528;2023-06-22T11:21:43;29.50;45.60
79055;DHT22;68452;47.186;-1.528;2023-06-22T11:24:09;29.40;46.10
79055;DHT22;68452;47.186;-1.528;2023-06-22T11:26:35;29.30;46.50
79055;DHT22;68452;47.186;-1.528;2023-06-22T11:29:02;29.10;46.60
79055;DHT22;68452;47.186;-1.528;2023-06-22T11:31:31;29.20;46.80
79055;DHT22;68452;47.186;-1.528;2023-06-22T11:33:58;29.60;46.00
79055;DHT22;68452;47.186;-1.528;2023-06-22T11:36:25;29.70;45.70
79055;DHT22;68452;47.186;-1.528;2023-06-22T11:38:51;29.80;45.40
79055;DHT22;68452;47.186;-1.528;2023-06-22T11:41:17;29.70;45.60
79055;DHT22;68452;47.186;-1.528;2023-06-22T11:43:42;29.60;45.90
79055;DHT22;68452;47.186;-1.528;2023-06-22T11:46:08;29.60;45.70
79055;DHT22;68452;47.186;-1.528;2023-06-22T11:48:34;29.40;45.80
79055;DHT22;68452;47.186;-1.528;2023-06-22T11:51:00;29.20;46.10
79055;DHT22;68452;47.186;-1.528;2023-06-22T11:53:28;29.10;46.50
79055;DHT22;68452;47.186;-1.528;2023-06-22T11:55:54;29.00;46.40
79055;DHT22;68452;47.186;-1.528;2023-06-22T11:58:21;29.20;45.40
79055;DHT22;68452;47.186;-1.528;2023-06-22T12:00:47;29.30;45.50
79055;DHT22;68452;47.186;-1.528;2023-06-22T12:03:13;29.30;45.40
79055;DHT22;68452;47.186;-1.528;2023-06-22T12:05:40;29.30;45.40
79055;DHT22;68452;47.186;-1.528;2023-06-22T12:08:06;29.40;44.80
79055;DHT22;68452;47.186;-1.528;2023-06-22T12:10:32;29.30;44.80
79055;DHT22;68452;47.186;-1.528;2023-06-22T12:12:58;29.30;45.50
79055;DHT22;68452;47.186;-1.528;2023-06-22T12:15:26;29.40;45.30
79055;DHT22;68452;47.186;-1.528;2023-06-22T12:17:52;29.50;45.30
79055;DHT22;68452;47.186;-1.528;2023-06-22T12:20:18;29.40;44.70
79055;DHT22;68452;47.186;-1.528;2023-06-22T12:22:44;29.20;44.80
79055;DHT22;68452;47.186;-1.528;2023-06-22T12:25:10;29.10;44.70
79055;DHT22;68452;47.186;-1.528;2023-06-22T12:27:37;28.90;45.10
79055;DHT22;68452;47.186;-1.528;2023-06-22T12:30:03;28.80;45.40
79055;DHT22;68452;47.186;-1.528;2023-06-22T12:32:29;28.70;45.70
79055;DHT22;68452;47.186;-1.528;2023-06-22T12:34:56;28.80;46.00
79055;DHT22;68452;47.186;-1.528;2023-06-22T12:37:22;28.80;45.50
79055;DHT22;68452;47.186;-1.528;2023-06-22T12:39:48;28.70;45.30
79055;DHT22;68452;47.186;-1.528;2023-06-22T12:42:15;28.80;45.60
79055;DHT22;68452;47.186;-1.528;2023-06-22T12:44:42;28.80;44.80
79055;DHT22;68452;47.186;-1.528;2023-06-22T12:47:08;28.90;44.40
79055;DHT22;68452;47.186;-1.528;2023-06-22T12:49:37;29.00;44.20
79055;DHT22;68452;47.186;-1.528;2023-06-22T12:52:04;28.90;43.70
79055;DHT22;68452;47.186;-1.528;2023-06-22T12:54:33;28.80;44.10
79055;DHT22;68452;47.186;-1.528;2023-06-22T12:56:59;28.70;44.00
79055;DHT22;68452;47.186;-1.528;2023-06-22T12:59:25;28.60;44.30
79055;DHT22;68452;47.186;-1.528;2023-06-22T13:01:51;28.50;44.50
79055;DHT22;68452;47.186;-1.528;2023-06-22T13:04:17;28.40;44.90
79055;DHT22;68452;47.186;-1.528;2023-06-22T13:06:46;28.40;45.30
79055;DHT22;68452;47.186;-1.528;2023-06-22T13:09:14;28.40;45.40
79055;DHT22;68452;47.186;-1.528;2023-06-22T13:11:41;28.40;45.30
79055;DHT22;68452;47.186;-1.528;2023-06-22T13:14:07;28.60;44.80
79055;DHT22;68452;47.186;-1.528;2023-06-22T13:16:33;28.70;44.30
79055;DHT22;68452;47.186;-1.528;2023-06-22T13:18:59;28.90;43.40
79055;DHT22;68452;47.186;-1.528;2023-06-22T13:21:25;29.10;43.20
79055;DHT22;68452;47.186;-1.528;2023-06-22T13:23:51;29.30;43.10
79055;DHT22;68452;47.186;-1.528;2023-06-22T13:26:17;29.30;43.30
79055;DHT22;68452;47.186;-1.528;2023-06-22T13:28:43;29.70;42.50
79055;DHT22;68452;47.186;-1.528;2023-06-22T13:31:09;29.80;41.90
79055;DHT22;68452;47.186;-1.528;2023-06-22T13:33:35;29.60;42.10
79055;DHT22;68452;47.186;-1.528;2023-06-22T13:36:01;29.30;42.40
79055;DHT22;68452;47.186;-1.528;2023-06-22T13:38:29;29.10;42.60
79055;DHT22;68452;47.186;-1.528;2023-06-22T13:40:56;28.90;42.90
79055;DHT22;68452;47.186;-1.528;2023-06-22T13:43:24;28.80;43.00
79055;DHT22;68452;47.186;-1.528;2023-06-22T13:45:50;28.70;42.60
79055;DHT22;68452;47.186;-1.528;2023-06-22T13:48:15;28.60;41.80
79055;DHT22;68452;47.186;-1.528;2023-06-22T13:50:43;28.60;42.10
79055;DHT22;68452;47.186;-1.528;2023-06-22T13:53:08;28.50;41.70
79055;DHT22;68452;47.186;-1.528;2023-06-22T13:55:34;28.60;41.40
79055;DHT22;68452;47.186;-1.528;2023-06-22T13:58:00;28.80;41.50
79055;DHT22;68452;47.186;-1.528;2023-06-22T14:00:26;28.90;41.30
79055;DHT22;68452;47.186;-1.528;2023-06-22T14:02:53;29.00;41.20
79055;DHT22;68452;47.186;-1.528;2023-06-22T14:05:20;29.10;41.30
79055;DHT22;68452;47.186;-1.528;2023-06-22T14:07:46;29.20;40.40
79055;DHT22;68452;47.186;-1.528;2023-06-22T14:10:12;29.40;40.20
79055;DHT22;68452;47.186;-1.528;2023-06-22T14:12:38;29.60;40.50
79055;DHT22;68452;47.186;-1.528;2023-06-22T14:15:04;29.70;39.90
79055;DHT22;68452;47.186;-1.528;2023-06-22T14:17:30;29.80;40.10
79055;DHT22;68452;47.186;-1.528;2023-06-22T14:19:55;30.70;38.80
79055;DHT22;68452;47.186;-1.528;2023-06-22T14:22:22;30.70;38.30
79055;DHT22;68452;47.186;-1.528;2023-06-22T14:24:49;30.40;38.30
79055;DHT22;68452;47.186;-1.528;2023-06-22T14:27:15;30.00;38.80
79055;DHT22;68452;47.186;-1.528;2023-06-22T14:29:42;30.00;39.60
79055;DHT22;68452;47.186;-1.528;2023-06-22T14:32:08;29.90;39.80
79055;DHT22;68452;47.186;-1.528;2023-06-22T14:34:35;29.80;40.00
79055;DHT22;68452;47.186;-1.528;2023-06-22T14:37:02;29.90;39.30
79055;DHT22;68452;47.186;-1.528;2023-06-22T14:39:28;30.00;39.30
79055;DHT22;68452;47.186;-1.528;2023-06-22T14:41:54;29.90;38.70
79055;DHT22;68452;47.186;-1.528;2023-06-22T14:44:20;29.70;39.30
79055;DHT22;68452;47.186;-1.528;2023-06-22T14:46:46;29.60;40.00
79055;DHT22;68452;47.186;-1.528;2023-06-22T14:49:12;29.40;40.40
79055;DHT22;68452;47.186;-1.528;2023-06-22T14:51:37;29.20;40.60
79055;DHT22;68452;47.186;-1.528;2023-06-22T14:54:03;29.10;41.20
79055;DHT22;68452;47.186;-1.528;2023-06-22T14:56:29;29.00;41.60
79055;DHT22;68452;47.186;-1.528;2023-06-22T14:58:55;28.90;42.00
79055;DHT22;68452;47.186;-1.528;2023-06-22T15:01:21;28.80;42.40
79055;DHT22;68452;47.186;-1.528;2023-06-22T15:03:47;28.70;42.60
79055;DHT22;68452;47.186;-1.528;2023-06-22T15:06:13;28.60;42.50
79055;DHT22;68452;47.186;-1.528;2023-06-22T15:08:40;28.50;42.90
79055;DHT22;68452;47.186;-1.528;2023-06-22T15:11:07;28.50;43.10
79055;DHT22;68452;47.186;-1.528;2023-06-22T15:13:33;28.50;43.10
79055;DHT22;68452;47.186;-1.528;2023-06-22T15:16:03;28.40;42.90